createdAt,value
2016-02-29T00:00:51.684Z,996.59
2016-02-29T00:01:51.686Z,996.62
2016-02-29T00:02:51.689Z,996.57
2016-02-29T00:03:51.676Z,996.57
2016-02-29T00:04:51.678Z,996.53
2016-02-29T00:05:51.681Z,996.56
2016-02-29T00:06:51.668Z,996.58
2016-02-29T00:07:51.670Z,996.58
2016-02-29T00:08:51.673Z,996.56
2016-02-29T00:09:51.661Z,996.6
2016-02-29T00:10:51.664Z,996.6
2016-02-29T00:11:51.667Z,996.65
2016-02-29T00:12:51.653Z,996.67
2016-02-29T00:13:51.672Z,996.71
2016-02-29T00:14:51.659Z,996.69
2016-02-29T00:15:51.661Z,996.75
2016-02-29T00:16:51.648Z,996.74
2016-02-29T00:17:51.667Z,996.78
2016-02-29T00:18:51.654Z,996.78
2016-02-29T00:19:51.641Z,996.76
2016-02-29T00:20:51.644Z,996.75
2016-02-29T00:21:51.646Z,996.71
2016-02-29T00:22:51.633Z,996.72
2016-02-29T00:23:51.636Z,996.73
2016-02-29T00:24:51.638Z,996.69
2016-02-29T00:25:51.626Z,996.69
2016-02-29T00:26:51.628Z,996.63
2016-02-29T00:27:51.616Z,996.6
2016-02-29T00:28:51.618Z,996.58
2016-02-29T00:29:51.626Z,996.6
2016-02-29T00:30:51.613Z,996.59
2016-02-29T00:31:51.615Z,996.62
2016-02-29T00:32:51.618Z,996.67
2016-02-29T00:33:51.605Z,996.71
2016-02-29T00:34:51.608Z,996.72
2016-02-29T00:35:51.595Z,996.71
2016-02-29T00:36:51.597Z,996.66
2016-02-29T00:37:51.600Z,996.69
2016-02-29T00:38:51.603Z,996.66
2016-02-29T00:39:51.589Z,996.67
2016-02-29T00:40:51.592Z,996.7
2016-02-29T00:41:51.595Z,996.7
2016-02-29T00:42:51.583Z,996.76
2016-02-29T00:43:51.585Z,996.74
2016-02-29T00:44:51.588Z,996.75
2016-02-29T00:45:51.575Z,996.79
2016-02-29T00:46:51.577Z,996.82
2016-02-29T00:47:51.580Z,996.85
2016-02-29T00:48:51.568Z,996.79
2016-02-29T00:49:51.570Z,996.81
2016-02-29T00:50:51.573Z,996.78
2016-02-29T00:51:51.560Z,996.82
2016-02-29T00:52:51.562Z,996.76
2016-02-29T00:53:51.565Z,996.77
2016-02-29T00:54:51.568Z,996.72
2016-02-29T00:55:51.554Z,996.73
2016-02-29T00:56:51.557Z,996.72
2016-02-29T00:57:51.545Z,996.7
2016-02-29T00:58:51.548Z,996.68
2016-02-29T00:59:51.550Z,996.68
2016-02-29T01:00:51.553Z,996.63
2016-02-29T01:01:51.555Z,996.66
2016-02-29T01:02:51.542Z,996.64
2016-02-29T01:03:51.545Z,996.61
2016-02-29T01:04:51.532Z,996.63
2016-02-29T01:05:51.534Z,996.55
2016-02-29T01:06:51.537Z,996.56
2016-02-29T01:07:51.525Z,996.57
2016-02-29T01:08:51.527Z,996.55
2016-02-29T01:09:51.530Z,996.67
2016-02-29T01:10:51.516Z,996.7
2016-02-29T01:11:51.519Z,996.71
2016-02-29T01:12:51.522Z,996.74
2016-02-29T01:13:51.510Z,996.77
2016-02-29T01:14:51.513Z,996.78
2016-02-29T01:15:51.499Z,996.78
2016-02-29T01:16:51.502Z,996.74
2016-02-29T01:17:51.505Z,996.7
2016-02-29T01:18:51.492Z,996.67
2016-02-29T01:19:51.494Z,996.63
2016-02-29T01:20:51.496Z,996.62
2016-02-29T01:21:51.485Z,996.59
2016-02-29T01:22:51.487Z,996.59
2016-02-29T01:23:51.490Z,996.62
2016-02-29T01:24:51.477Z,996.63
2016-02-29T01:25:51.479Z,996.65
2016-02-29T01:26:51.482Z,996.65
2016-02-29T01:27:51.469Z,996.66
2016-02-29T01:28:51.472Z,996.68
2016-02-29T01:29:51.473Z,996.66
2016-02-29T01:30:51.461Z,996.68
2016-02-29T01:31:51.464Z,996.66
2016-02-29T01:32:51.467Z,996.62
2016-02-29T01:33:51.453Z,996.61
2016-02-29T01:34:51.457Z,996.57
2016-02-29T01:35:51.459Z,996.55
2016-02-29T01:36:51.447Z,996.56
2016-02-29T01:37:51.450Z,996.6
2016-02-29T01:38:51.452Z,996.59
2016-02-29T01:39:51.438Z,996.59
2016-02-29T01:40:51.441Z,996.55
2016-02-29T01:41:51.428Z,996.53
2016-02-29T01:42:51.431Z,996.54
2016-02-29T01:43:51.433Z,996.57
2016-02-29T01:44:51.421Z,996.53
2016-02-29T01:45:51.424Z,996.53
2016-02-29T01:46:51.427Z,996.51
2016-02-29T01:47:51.413Z,996.48
2016-02-29T01:48:51.416Z,996.51
2016-02-29T01:49:51.419Z,996.48
2016-02-29T01:50:51.405Z,996.49
2016-02-29T01:51:51.408Z,996.49
2016-02-29T01:52:51.411Z,996.45
2016-02-29T01:53:51.399Z,996.49
2016-02-29T01:54:51.402Z,996.48
2016-02-29T01:55:51.419Z,996.44
2016-02-29T01:56:51.391Z,996.43
2016-02-29T01:57:51.394Z,996.36
2016-02-29T01:58:51.381Z,996.37
2016-02-29T01:59:51.384Z,996.32
2016-02-29T02:00:51.384Z,996.35
2016-02-29T02:01:51.356Z,996.34
2016-02-29T02:02:51.344Z,996.31
2016-02-29T02:03:51.315Z,996.35
2016-02-29T02:04:51.303Z,996.33
2016-02-29T02:05:51.292Z,996.32
2016-02-29T02:06:51.274Z,996.33
2016-02-29T02:07:51.287Z,996.33
2016-02-29T02:08:51.269Z,996.37
2016-02-29T02:09:51.250Z,996.39
2016-02-29T02:10:51.248Z,996.42
2016-02-29T02:11:51.233Z,996.45
2016-02-29T02:12:51.234Z,996.4
2016-02-29T02:13:51.234Z,996.42
2016-02-29T02:14:51.235Z,996.42
2016-02-29T02:15:51.221Z,996.37
2016-02-29T02:16:51.207Z,996.33
2016-02-29T02:17:51.209Z,996.31
2016-02-29T02:18:51.211Z,996.37
2016-02-29T02:19:51.212Z,996.3
2016-02-29T02:20:51.200Z,996.33
2016-02-29T02:21:51.202Z,996.34
2016-02-29T02:22:51.190Z,996.4
2016-02-29T02:23:51.192Z,996.37
2016-02-29T02:24:51.179Z,996.37
2016-02-29T02:25:51.182Z,996.39
2016-02-29T02:26:51.184Z,996.41
2016-02-29T02:27:51.172Z,996.38
2016-02-29T02:28:51.174Z,996.41
2016-02-29T02:29:51.177Z,996.43
2016-02-29T02:30:51.163Z,996.4
2016-02-29T02:31:51.167Z,996.38
2016-02-29T02:32:51.154Z,996.39
2016-02-29T02:33:51.172Z,996.35
2016-02-29T02:34:51.159Z,996.32
2016-02-29T02:35:51.146Z,996.31
2016-02-29T02:36:51.149Z,996.35
2016-02-29T02:37:51.136Z,996.37
2016-02-29T02:38:51.138Z,996.32
2016-02-29T02:39:51.126Z,996.39
2016-02-29T02:40:51.129Z,996.43
2016-02-29T02:41:51.131Z,996.42
2016-02-29T02:42:51.134Z,996.51
2016-02-29T02:43:51.137Z,996.47
2016-02-29T02:44:51.124Z,996.5
2016-02-29T02:45:51.110Z,996.47
2016-02-29T02:46:51.129Z,996.47
2016-02-29T02:47:51.101Z,996.49
2016-02-29T02:48:51.118Z,996.56
2016-02-29T02:49:51.105Z,996.46
2016-02-29T02:50:51.093Z,996.49
2016-02-29T02:51:51.095Z,996.49
2016-02-29T02:52:51.098Z,996.47
2016-02-29T02:53:51.085Z,996.49
2016-02-29T02:54:51.087Z,996.48
2016-02-29T02:55:51.075Z,996.53
2016-02-29T02:56:51.078Z,996.5
2016-02-29T02:57:51.064Z,996.48
2016-02-29T02:58:51.084Z,996.5
2016-02-29T02:59:51.070Z,996.48
2016-02-29T03:00:51.073Z,996.44
2016-02-29T03:01:51.060Z,996.38
2016-02-29T03:02:51.047Z,996.39
2016-02-29T03:03:51.050Z,996.4
2016-02-29T03:04:51.053Z,996.41
2016-02-29T03:05:51.055Z,996.42
2016-02-29T03:06:51.027Z,996.45
2016-02-29T03:07:51.030Z,996.44
2016-02-29T03:08:51.032Z,996.4
2016-02-29T03:09:51.019Z,996.43
2016-02-29T03:10:51.022Z,996.41
2016-02-29T03:11:51.024Z,996.35
2016-02-29T03:12:51.011Z,996.35
2016-02-29T03:13:51.014Z,996.3
2016-02-29T03:14:51.001Z,996.29
2016-02-29T03:15:51.004Z,996.31
2016-02-29T03:16:50.991Z,996.36
2016-02-29T03:17:50.994Z,996.35
2016-02-29T03:18:50.981Z,996.39
2016-02-29T03:19:50.984Z,996.41
2016-02-29T03:20:50.986Z,996.45
2016-02-29T03:21:50.973Z,996.49
2016-02-29T03:22:50.975Z,996.52
2016-02-29T03:23:50.963Z,996.48
2016-02-29T03:24:50.965Z,996.54
2016-02-29T03:25:50.968Z,996.53
2016-02-29T03:26:50.970Z,996.51
2016-02-29T03:27:50.942Z,996.5
2016-02-29T03:28:50.945Z,996.51
2016-02-29T03:29:50.948Z,996.47
2016-02-29T03:30:50.951Z,996.46
2016-02-29T03:31:50.937Z,996.45
2016-02-29T03:32:50.940Z,996.42
2016-02-29T03:33:50.927Z,996.42
2016-02-29T03:34:50.931Z,996.42
2016-02-29T03:35:50.917Z,996.46
2016-02-29T03:36:50.920Z,996.45
2016-02-29T03:37:50.922Z,996.42
2016-02-29T03:38:50.910Z,996.45
2016-02-29T03:39:50.896Z,996.45
2016-02-29T03:40:50.899Z,996.47
2016-02-29T03:41:50.901Z,996.46
2016-02-29T03:42:50.888Z,996.44
2016-02-29T03:43:50.892Z,996.51
2016-02-29T03:44:50.879Z,996.48
2016-02-29T03:45:50.881Z,996.46
2016-02-29T03:46:50.868Z,996.5
2016-02-29T03:47:50.871Z,996.45
2016-02-29T03:48:50.874Z,996.49
2016-02-29T03:49:50.861Z,996.45
2016-02-29T03:50:50.863Z,996.47
2016-02-29T03:51:50.866Z,996.43
2016-02-29T03:52:50.853Z,996.43
2016-02-29T03:53:50.841Z,996.42
2016-02-29T03:54:50.843Z,996.4
2016-02-29T03:55:50.846Z,996.37
2016-02-29T03:56:50.833Z,996.37
2016-02-29T03:57:50.836Z,996.36
2016-02-29T03:58:50.823Z,996.34
2016-02-29T03:59:50.826Z,996.37
2016-02-29T04:00:50.812Z,996.36
2016-02-29T04:01:50.815Z,996.37
2016-02-29T04:02:50.803Z,996.35
2016-02-29T04:03:50.806Z,996.38
2016-02-29T04:04:50.792Z,996.38
2016-02-29T04:05:50.795Z,996.36
2016-02-29T04:06:50.798Z,996.34
2016-02-29T04:07:50.784Z,996.32
2016-02-29T04:08:50.786Z,996.31
2016-02-29T04:09:50.774Z,996.3
2016-02-29T04:10:50.777Z,996.3
2016-02-29T04:11:50.763Z,996.31
2016-02-29T04:12:50.766Z,996.34
2016-02-29T04:13:50.754Z,996.35
2016-02-29T04:14:50.757Z,996.37
2016-02-29T04:15:50.759Z,996.34
2016-02-29T04:16:50.762Z,996.35
2016-02-29T04:17:50.748Z,996.33
2016-02-29T04:18:50.752Z,996.32
2016-02-29T04:19:50.738Z,996.37
2016-02-29T04:20:50.741Z,996.32
2016-02-29T04:21:50.729Z,996.33
2016-02-29T04:22:50.731Z,996.37
2016-02-29T04:23:50.718Z,996.4
2016-02-29T04:24:50.720Z,996.41
2016-02-29T04:25:50.707Z,996.4
2016-02-29T04:26:50.710Z,996.46
2016-02-29T04:27:50.698Z,996.44
2016-02-29T04:28:50.702Z,996.5
2016-02-29T04:29:50.688Z,996.45
2016-02-29T04:30:50.691Z,996.46
2016-02-29T04:31:50.678Z,996.43
2016-02-29T04:32:50.680Z,996.4
2016-02-29T04:33:50.683Z,996.43
2016-02-29T04:34:50.670Z,996.43
2016-02-29T04:35:50.674Z,996.33
2016-02-29T04:36:50.660Z,996.38
2016-02-29T04:37:50.663Z,996.35
2016-02-29T04:38:50.665Z,996.38
2016-02-29T04:39:50.653Z,996.4
2016-02-29T04:40:50.640Z,996.43
2016-02-29T04:41:50.642Z,996.48
2016-02-29T04:42:50.645Z,996.44
2016-02-29T04:43:50.632Z,996.45
2016-02-29T04:44:50.619Z,996.45
2016-02-29T04:45:50.622Z,996.45
2016-02-29T04:46:50.625Z,996.44
2016-02-29T04:47:50.611Z,996.47
2016-02-29T04:48:50.615Z,996.48
2016-02-29T04:49:50.601Z,996.51
2016-02-29T04:50:50.604Z,996.52
2016-02-29T04:51:50.591Z,996.5
2016-02-29T04:52:50.594Z,996.5
2016-02-29T04:53:50.581Z,996.48
2016-02-29T04:54:50.583Z,996.45
2016-02-29T04:55:50.586Z,996.54
2016-02-29T04:56:50.574Z,996.58
2016-02-29T04:57:50.561Z,996.56
2016-02-29T04:58:50.563Z,996.58
2016-02-29T04:59:50.550Z,996.56
2016-02-29T05:00:50.552Z,996.6
2016-02-29T05:01:50.556Z,996.56
2016-02-29T05:02:50.543Z,996.57
2016-02-29T05:03:50.546Z,996.57
2016-02-29T05:04:50.532Z,996.52
2016-02-29T05:05:50.522Z,996.57
2016-02-29T05:06:50.525Z,996.54
2016-02-29T05:07:50.512Z,996.56
2016-02-29T05:08:50.515Z,996.53
2016-02-29T05:09:50.502Z,996.52
2016-02-29T05:10:50.504Z,996.57
2016-02-29T05:11:50.507Z,996.52
2016-02-29T05:12:50.494Z,996.49
2016-02-29T05:13:50.497Z,996.49
2016-02-29T05:14:50.485Z,996.49
2016-02-29T05:15:50.487Z,996.44
2016-02-29T05:16:50.474Z,996.45
2016-02-29T05:17:50.476Z,996.48
2016-02-29T05:18:50.464Z,996.44
2016-02-29T05:19:50.466Z,996.47
2016-02-29T05:20:50.453Z,996.48
2016-02-29T05:21:50.456Z,996.43
2016-02-29T05:22:50.442Z,996.45
2016-02-29T05:23:50.445Z,996.41
2016-02-29T05:24:50.448Z,996.38
2016-02-29T05:25:50.435Z,996.39
2016-02-29T05:26:50.438Z,996.36
2016-02-29T05:27:50.425Z,996.35
2016-02-29T05:28:50.413Z,996.33
2016-02-29T05:29:50.415Z,996.32
2016-02-29T05:30:50.418Z,996.33
2016-02-29T05:31:50.638Z,996.32
2016-02-29T05:32:50.407Z,996.34
2016-02-29T05:33:50.395Z,996.35
2016-02-29T05:34:50.397Z,996.33
2016-02-29T05:35:50.385Z,996.39
2016-02-29T05:36:50.387Z,996.36
2016-02-29T05:37:50.374Z,996.37
2016-02-29T05:38:50.377Z,996.35
2016-02-29T05:39:50.364Z,996.32
2016-02-29T05:40:50.351Z,996.33
2016-02-29T05:41:50.354Z,996.31
2016-02-29T05:42:50.340Z,996.29
2016-02-29T05:43:50.344Z,996.29
2016-02-29T05:44:50.345Z,996.28
2016-02-29T05:45:50.334Z,996.33
2016-02-29T05:46:50.337Z,996.29
2016-02-29T05:47:50.323Z,996.28
2016-02-29T05:48:50.310Z,996.3
2016-02-29T05:49:50.313Z,996.24
2016-02-29T05:50:50.315Z,996.24
2016-02-29T05:51:50.334Z,996.25
2016-02-29T05:52:50.290Z,996.25
2016-02-29T05:53:50.292Z,996.25
2016-02-29T05:54:50.279Z,996.25
2016-02-29T05:55:50.297Z,996.23
2016-02-29T05:56:50.269Z,996.22
2016-02-29T05:57:50.280Z,996.3
2016-02-29T05:58:50.280Z,996.29
2016-02-29T05:59:50.724Z,996.28
2016-02-29T06:00:53.058Z,996.31
2016-02-29T06:01:50.241Z,996.35
2016-02-29T06:02:50.244Z,996.34
2016-02-29T06:03:50.231Z,996.43
2016-02-29T06:04:50.233Z,996.35
2016-02-29T06:05:50.222Z,996.37
2016-02-29T06:06:50.224Z,996.39
2016-02-29T06:07:50.211Z,996.35
2016-02-29T06:08:50.213Z,996.43
2016-02-29T06:09:50.200Z,996.41
2016-02-29T06:10:50.203Z,996.44
2016-02-29T06:11:50.191Z,996.5
2016-02-29T06:12:50.193Z,996.48
2016-02-29T06:13:50.196Z,996.54
2016-02-29T06:14:50.182Z,996.49
2016-02-29T06:15:50.170Z,996.52
2016-02-29T06:16:50.172Z,996.53
2016-02-29T06:17:50.168Z,996.59
2016-02-29T06:18:50.155Z,996.56
2016-02-29T06:19:50.157Z,996.54
2016-02-29T06:20:50.144Z,996.55
2016-02-29T06:21:50.146Z,996.57
2016-02-29T06:22:50.134Z,996.57
2016-02-29T06:23:50.121Z,996.55
2016-02-29T06:24:50.124Z,996.61
2016-02-29T06:25:50.110Z,996.57
2016-02-29T06:26:50.113Z,996.5
2016-02-29T06:27:50.115Z,996.57
2016-02-29T06:28:50.103Z,996.54
2016-02-29T06:29:50.106Z,996.52
2016-02-29T06:30:50.124Z,996.62
2016-02-29T06:31:50.095Z,996.53
2016-02-29T06:32:50.098Z,996.54
2016-02-29T06:33:50.085Z,996.62
2016-02-29T06:34:50.072Z,996.63
2016-02-29T06:35:50.075Z,996.68
2016-02-29T06:36:50.062Z,996.64
2016-02-29T06:37:50.065Z,996.65
2016-02-29T06:38:50.052Z,996.6
2016-02-29T06:39:50.055Z,996.55
2016-02-29T06:40:50.041Z,996.6
2016-02-29T06:41:50.044Z,996.6
2016-02-29T06:42:50.031Z,996.61
2016-02-29T06:43:50.034Z,996.57
2016-02-29T06:44:50.036Z,996.59
2016-02-29T06:45:50.024Z,996.58
2016-02-29T06:46:50.010Z,996.64
2016-02-29T06:47:50.014Z,996.64
2016-02-29T06:48:50.001Z,996.66
2016-02-29T06:49:49.988Z,996.65
2016-02-29T06:50:49.990Z,996.66
2016-02-29T06:51:49.993Z,996.68
2016-02-29T06:52:49.980Z,996.68
2016-02-29T06:53:49.967Z,996.69
2016-02-29T06:54:49.970Z,996.7
2016-02-29T06:55:49.973Z,996.69
2016-02-29T06:56:49.960Z,996.68
2016-02-29T06:57:49.946Z,996.68
2016-02-29T06:58:49.949Z,996.64
2016-02-29T06:59:49.951Z,996.67
2016-02-29T07:00:49.940Z,996.69
2016-02-29T07:01:49.926Z,996.73
2016-02-29T07:02:49.929Z,996.76
2016-02-29T07:03:49.916Z,996.75
2016-02-29T07:04:49.919Z,996.78
2016-02-29T07:05:49.922Z,996.78
2016-02-29T07:06:49.908Z,996.77
2016-02-29T07:07:49.895Z,996.76
2016-02-29T07:08:49.898Z,996.8
2016-02-29T07:09:49.900Z,996.86
2016-02-29T07:10:49.903Z,996.87
2016-02-29T07:11:49.875Z,996.86
2016-02-29T07:12:49.877Z,996.87
2016-02-29T07:13:49.864Z,996.89
2016-02-29T07:14:49.867Z,996.94
2016-02-29T07:15:49.855Z,996.9
2016-02-29T07:16:49.857Z,996.85
2016-02-29T07:17:49.844Z,996.89
2016-02-29T07:18:49.847Z,996.87
2016-02-29T07:19:49.835Z,996.88
2016-02-29T07:20:49.837Z,996.91
2016-02-29T07:21:49.824Z,996.95
2016-02-29T07:22:49.826Z,996.92
2016-02-29T07:23:49.813Z,996.89
2016-02-29T07:24:49.816Z,996.88
2016-02-29T07:25:49.803Z,996.94
2016-02-29T07:26:49.807Z,996.96
2016-02-29T07:27:49.809Z,996.96
2016-02-29T07:28:49.796Z,996.89
2016-02-29T07:29:49.782Z,996.96
2016-02-29T07:30:49.785Z,996.94
2016-02-29T07:31:49.773Z,996.98
2016-02-29T07:32:49.775Z,997.01
2016-02-29T07:33:49.762Z,996.97
2016-02-29T07:34:49.765Z,997.02
2016-02-29T07:35:49.752Z,997.02
2016-02-29T07:36:49.755Z,997.05
2016-02-29T07:37:49.758Z,997.06
2016-02-29T07:38:49.744Z,997.11
2016-02-29T07:39:49.732Z,997.09
2016-02-29T07:40:49.734Z,997.11
2016-02-29T07:41:49.737Z,997.12
2016-02-29T07:42:49.724Z,997.11
2016-02-29T07:43:49.711Z,997.12
2016-02-29T07:44:49.714Z,997.14
2016-02-29T07:45:49.701Z,997.1
2016-02-29T07:46:49.703Z,997.14
2016-02-29T07:47:49.691Z,997.12
2016-02-29T07:48:49.694Z,997.15
2016-02-29T07:49:49.696Z,997.17
2016-02-29T07:50:49.683Z,997.13
2016-02-29T07:51:49.670Z,997.14
2016-02-29T07:52:49.673Z,997.2
2016-02-29T07:53:49.660Z,997.16
2016-02-29T07:54:49.663Z,997.11
2016-02-29T07:55:49.665Z,997.09
2016-02-29T07:56:49.668Z,997.12
2016-02-29T07:57:49.640Z,997.12
2016-02-29T07:58:49.643Z,997.11
2016-02-29T07:59:49.629Z,997.08
2016-02-29T08:00:49.648Z,997.11
